Harrisville, Mississippi
Current Conditions -  °F | °C
As of 8:54 PM on Wednesday 22 Oct 2014 (Local Time) from KJAN Reporting Station
Clear Clear  
Wind Chill: 60°   Ceiling: Unl
Heat Index: 60°   Visibility: 10mi
Dew Point: 45°   Wind: 6mph
Humidity: 57%   Direction: 40°NE
Pressure: 30.12"   Gusts: NA
Location:  31.97°N, 90.08°W
Report Text: KJAN 230154Z 04005KT 10SM CLR 16/07 A3012 RMK AO2 SLP199 T01560072
Loading
Personal Weather Stations






























Interactive Weather Map
Tropical Storm Tracking
New forecast layout! Learn more

10-Day Weather Forecast

Advertisements
Track Severe Weather on mobile